sensor_id;sensor_type;location;lat;lon;timestamp;P1;durP1;ratioP1;P2;durP2;ratioP2
79412;SDS011;68863;49.528;11.010;2024-03-23T14:12:37;12.85;;;1.70;;
79412;SDS011;68863;49.528;11.010;2024-03-23T14:15:53;2.95;;;0.50;;
79412;SDS011;68863;49.528;11.010;2024-03-23T14:16:58;5.07;;;0.85;;
79412;SDS011;68863;49.528;11.010;2024-03-23T14:18:59;4.22;;;0.70;;
79412;SDS011;68863;49.528;11.010;2024-03-23T14:20:00;3.58;;;0.73;;
79412;SDS011;68863;49.528;11.010;2024-03-23T14:21:01;4.38;;;0.77;;
79412;SDS011;68863;49.528;11.010;2024-03-23T14:22:01;4.40;;;1.00;;
79412;SDS011;68863;49.528;11.010;2024-03-23T14:23:02;4.88;;;0.98;;
79412;SDS011;68863;49.528;11.010;2024-03-23T14:25:01;5.05;;;0.77;;
79412;SDS011;68863;49.528;11.010;2024-03-23T14:27:00;5.45;;;0.95;;
79412;SDS011;68863;49.528;11.010;2024-03-23T14:28:59;4.25;;;0.85;;
79412;SDS011;68863;49.528;11.010;2024-03-23T14:30:57;4.10;;;0.80;;
79412;SDS011;68863;49.528;11.010;2024-03-23T14:32:56;3.13;;;0.55;;
79412;SDS011;68863;49.528;11.010;2024-03-23T14:34:55;4.30;;;0.60;;
79412;SDS011;68863;49.528;11.010;2024-03-23T14:37:06;5.30;;;1.05;;
79412;SDS011;68863;49.528;11.010;2024-03-23T14:39:11;4.10;;;0.80;;
79412;SDS011;68863;49.528;11.010;2024-03-23T14:41:12;3.38;;;0.95;;
79412;SDS011;68863;49.528;11.010;2024-03-23T14:43:11;5.47;;;0.68;;
79412;SDS011;68863;49.528;11.010;2024-03-23T14:45:13;4.75;;;0.82;;
79412;SDS011;68863;49.528;11.010;2024-03-23T14:47:13;2.95;;;0.63;;
79412;SDS011;68863;49.528;11.010;2024-03-23T14:49:15;4.85;;;0.82;;
79412;SDS011;68863;49.528;11.010;2024-03-23T14:51:16;5.88;;;0.90;;
79412;SDS011;68863;49.528;11.010;2024-03-23T14:53:15;2.83;;;0.50;;
79412;SDS011;68863;49.528;11.010;2024-03-23T14:55:17;3.53;;;0.68;;
79412;SDS011;68863;49.528;11.010;2024-03-23T14:57:17;3.45;;;0.65;;
79412;SDS011;68863;49.528;11.010;2024-03-23T14:59:27;3.38;;;0.57;;
79412;SDS011;68863;49.528;11.010;2024-03-23T15:01:29;3.10;;;0.65;;
79412;SDS011;68863;49.528;11.010;2024-03-23T15:03:30;3.78;;;0.60;;
79412;SDS011;68863;49.528;11.010;2024-03-23T15:05:29;3.92;;;0.77;;
79412;SDS011;68863;49.528;11.010;2024-03-23T15:07:28;4.13;;;0.90;;
79412;SDS011;68863;49.528;11.010;2024-03-23T15:09:35;4.40;;;0.88;;
79412;SDS011;68863;49.528;11.010;2024-03-23T15:11:35;3.60;;;0.60;;
79412;SDS011;68863;49.528;11.010;2024-03-23T15:13:37;3.63;;;0.80;;
79412;SDS011;68863;49.528;11.010;2024-03-23T15:15:39;3.90;;;0.70;;
79412;SDS011;68863;49.528;11.010;2024-03-23T15:17:38;5.00;;;0.60;;
79412;SDS011;68863;49.528;11.010;2024-03-23T15:19:46;4.07;;;0.50;;
79412;SDS011;68863;49.528;11.010;2024-03-23T15:21:54;5.35;;;0.73;;
79412;SDS011;68863;49.528;11.010;2024-03-23T15:23:53;2.88;;;0.55;;
79412;SDS011;68863;49.528;11.010;2024-03-23T15:25:58;5.53;;;0.80;;
79412;SDS011;68863;49.528;11.010;2024-03-23T15:27:57;3.65;;;0.80;;
79412;SDS011;68863;49.528;11.010;2024-03-23T15:29:56;3.65;;;0.68;;
79412;SDS011;68863;49.528;11.010;2024-03-23T15:31:58;4.85;;;0.90;;
79412;SDS011;68863;49.528;11.010;2024-03-23T15:33:57;5.50;;;0.68;;
79412;SDS011;68863;49.528;11.010;2024-03-23T15:35:59;5.30;;;0.80;;
79412;SDS011;68863;49.528;11.010;2024-03-23T15:37:58;4.82;;;0.60;;
79412;SDS011;68863;49.528;11.010;2024-03-23T15:39:57;4.32;;;1.08;;
79412;SDS011;68863;49.528;11.010;2024-03-23T15:41:56;4.75;;;0.63;;
79412;SDS011;68863;49.528;11.010;2024-03-23T15:43:55;2.95;;;0.65;;
79412;SDS011;68863;49.528;11.010;2024-03-23T15:45:56;3.55;;;0.63;;
79412;SDS011;68863;49.528;11.010;2024-03-23T15:47:55;3.05;;;0.60;;
79412;SDS011;68863;49.528;11.010;2024-03-23T15:49:55;2.00;;;0.55;;
79412;SDS011;68863;49.528;11.010;2024-03-23T15:51:55;4.63;;;1.08;;
79412;SDS011;68863;49.528;11.010;2024-03-23T15:53:55;3.00;;;0.73;;
79412;SDS011;68863;49.528;11.010;2024-03-23T15:55:59;4.15;;;0.80;;
79412;SDS011;68863;49.528;11.010;2024-03-23T15:58:01;3.33;;;0.80;;
79412;SDS011;68863;49.528;11.010;2024-03-23T16:00:05;6.05;;;1.00;;
79412;SDS011;68863;49.528;11.010;2024-03-23T16:02:39;4.25;;;0.88;;
79412;SDS011;68863;49.528;11.010;2024-03-23T16:04:32;5.10;;;0.88;;
79412;SDS011;68863;49.528;11.010;2024-03-23T16:06:36;3.60;;;0.80;;
79412;SDS011;68863;49.528;11.010;2024-03-23T16:08:35;2.88;;;0.70;;
79412;SDS011;68863;49.528;11.010;2024-03-23T16:10:34;3.72;;;0.70;;
79412;SDS011;68863;49.528;11.010;2024-03-23T16:12:33;5.75;;;0.60;;
79412;SDS011;68863;49.528;11.010;2024-03-23T16:14:32;3.53;;;0.40;;
79412;SDS011;68863;49.528;11.010;2024-03-23T16:16:31;2.67;;;0.45;;
79412;SDS011;68863;49.528;11.010;2024-03-23T16:18:29;2.40;;;0.50;;
79412;SDS011;68863;49.528;11.010;2024-03-23T16:20:28;2.80;;;0.63;;
79412;SDS011;68863;49.528;11.010;2024-03-23T16:22:27;4.47;;;0.50;;
79412;SDS011;68863;49.528;11.010;2024-03-23T16:24:27;3.38;;;0.43;;
79412;SDS011;68863;49.528;11.010;2024-03-23T16:26:26;3.92;;;0.73;;
79412;SDS011;68863;49.528;11.010;2024-03-23T16:30:23;2.63;;;0.32;;
79412;SDS011;68863;49.528;11.010;2024-03-23T16:32:22;3.33;;;0.50;;
79412;SDS011;68863;49.528;11.010;2024-03-23T16:34:21;2.17;;;0.60;;
79412;SDS011;68863;49.528;11.010;2024-03-23T16:36:20;3.15;;;0.40;;
79412;SDS011;68863;49.528;11.010;2024-03-23T16:38:19;2.88;;;0.60;;
79412;SDS011;68863;49.528;11.010;2024-03-23T16:40:18;3.88;;;0.70;;
79412;SDS011;68863;49.528;11.010;2024-03-23T16:42:17;2.70;;;0.60;;
79412;SDS011;68863;49.528;11.010;2024-03-23T16:44:16;3.95;;;0.50;;
79412;SDS011;68863;49.528;11.010;2024-03-23T16:46:15;3.10;;;0.40;;
79412;SDS011;68863;49.528;11.010;2024-03-23T16:48:14;3.30;;;0.40;;
79412;SDS011;68863;49.528;11.010;2024-03-23T16:50:13;3.13;;;0.50;;
79412;SDS011;68863;49.528;11.010;2024-03-23T16:52:12;2.40;;;0.30;;
79412;SDS011;68863;49.528;11.010;2024-03-23T16:54:11;3.58;;;0.40;;
79412;SDS011;68863;49.528;11.010;2024-03-23T16:56:10;1.90;;;0.35;;
79412;SDS011;68863;49.528;11.010;2024-03-23T16:58:09;2.63;;;0.22;;
79412;SDS011;68863;49.528;11.010;2024-03-23T17:00:08;1.60;;;0.40;;
79412;SDS011;68863;49.528;11.010;2024-03-23T17:02:12;2.28;;;0.22;;
79412;SDS011;68863;49.528;11.010;2024-03-23T17:04:11;2.58;;;0.30;;
79412;SDS011;68863;49.528;11.010;2024-03-23T17:06:10;2.42;;;0.10;;
79412;SDS011;68863;49.528;11.010;2024-03-23T17:07:14;1.33;;;0.30;;
79412;SDS011;68863;49.528;11.010;2024-03-23T17:08:14;1.85;;;0.20;;
79412;SDS011;68863;49.528;11.010;2024-03-23T17:09:15;1.55;;;0.30;;
79412;SDS011;68863;49.528;11.010;2024-03-23T17:10:16;2.40;;;0.40;;
79412;SDS011;68863;49.528;11.010;2024-03-23T17:11:17;0.98;;;0.20;;
79412;SDS011;68863;49.528;11.010;2024-03-23T17:12:18;1.95;;;0.30;;
79412;SDS011;68863;49.528;11.010;2024-03-23T17:13:18;2.40;;;0.30;;
79412;SDS011;68863;49.528;11.010;2024-03-23T17:14:19;1.13;;;0.20;;
79412;SDS011;68863;49.528;11.010;2024-03-23T17:15:26;3.00;;;0.30;;
79412;SDS011;68863;49.528;11.010;2024-03-23T17:16:44;2.78;;;0.20;;
79412;SDS011;68863;49.528;11.010;2024-03-23T17:17:49;4.68;;;0.30;;
79412;SDS011;68863;49.528;11.010;2024-03-23T17:18:49;1.70;;;0.20;;
79412;SDS011;68863;49.528;11.010;2024-03-23T17:19:58;2.38;;;0.43;;
79412;SDS011;68863;49.528;11.010;2024-03-23T17:21:02;3.17;;;0.30;;
79412;SDS011;68863;49.528;11.010;2024-03-23T17:22:09;1.55;;;0.20;;
79412;SDS011;68863;49.528;11.010;2024-03-23T17:23:24;1.80;;;0.20;;
79412;SDS011;68863;49.528;11.010;2024-03-23T17:24:45;2.55;;;0.30;;
79412;SDS011;68863;49.528;11.010;2024-03-23T17:25:51;1.45;;;0.20;;
79412;SDS011;68863;49.528;11.010;2024-03-23T17:26:51;1.67;;;0.20;;
79412;SDS011;68863;49.528;11.010;2024-03-23T17:27:51;1.67;;;0.30;;
79412;SDS011;68863;49.528;11.010;2024-03-23T17:28:52;2.88;;;0.30;;
79412;SDS011;68863;49.528;11.010;2024-03-23T17:29:52;1.67;;;0.28;;
79412;SDS011;68863;49.528;11.010;2024-03-23T17:30:52;2.10;;;0.32;;
79412;SDS011;68863;49.528;11.010;2024-03-23T17:31:53;1.47;;;0.30;;
79412;SDS011;68863;49.528;11.010;2024-03-23T17:32:53;1.13;;;0.20;;
79412;SDS011;68863;49.528;11.010;2024-03-23T17:33:53;1.90;;;0.30;;
79412;SDS011;68863;49.528;11.010;2024-03-23T17:34:55;1.42;;;0.22;;
79412;SDS011;68863;49.528;11.010;2024-03-23T17:35:55;2.10;;;0.30;;
79412;SDS011;68863;49.528;11.010;2024-03-23T17:36:55;2.47;;;0.30;;
79412;SDS011;68863;49.528;11.010;2024-03-23T17:37:56;2.30;;;0.30;;
79412;SDS011;68863;49.528;11.010;2024-03-23T17:38:56;2.73;;;0.40;;
79412;SDS011;68863;49.528;11.010;2024-03-23T17:39:57;2.17;;;0.20;;
79412;SDS011;68863;49.528;11.010;2024-03-23T17:40:57;1.73;;;0.30;;
79412;SDS011;68863;49.528;11.010;2024-03-23T17:41:57;1.80;;;0.22;;
79412;SDS011;68863;49.528;11.010;2024-03-23T17:42:58;2.28;;;0.43;;
79412;SDS011;68863;49.528;11.010;2024-03-23T17:43:59;1.85;;;0.35;;
79412;SDS011;68863;49.528;11.010;2024-03-23T17:44:59;2.70;;;0.20;;
79412;SDS011;68863;49.528;11.010;2024-03-23T17:45:59;0.63;;;0.20;;
79412;SDS011;68863;49.528;11.010;2024-03-23T17:47:00;1.73;;;0.25;;
79412;SDS011;68863;49.528;11.010;2024-03-23T17:48:00;1.23;;;0.20;;
79412;SDS011;68863;49.528;11.010;2024-03-23T17:49:00;1.38;;;0.22;;
79412;SDS011;68863;49.528;11.010;2024-03-23T17:50:01;2.22;;;0.20;;
79412;SDS011;68863;49.528;11.010;2024-03-23T17:51:04;1.65;;;0.20;;
79412;SDS011;68863;49.528;11.010;2024-03-23T17:52:08;1.75;;;0.20;;
79412;SDS011;68863;49.528;11.010;2024-03-23T17:53:12;1.88;;;0.20;;
79412;SDS011;68863;49.528;11.010;2024-03-23T17:54:12;1.93;;;0.20;;
79412;SDS011;68863;49.528;11.010;2024-03-23T17:55:13;1.42;;;0.65;;
79412;SDS011;68863;49.528;11.010;2024-03-23T17:56:16;2.33;;;0.22;;
79412;SDS011;68863;49.528;11.010;2024-03-23T17:57:16;1.42;;;0.30;;
79412;SDS011;68863;49.528;11.010;2024-03-23T17:58:17;2.15;;;0.20;;
79412;SDS011;68863;49.528;11.010;2024-03-23T17:59:17;2.90;;;0.30;;
79412;SDS011;68863;49.528;11.010;2024-03-23T18:00:17;2.83;;;0.32;;
79412;SDS011;68863;49.528;11.010;2024-03-23T18:01:19;1.90;;;0.30;;
79412;SDS011;68863;49.528;11.010;2024-03-23T18:02:22;1.08;;;0.10;;
79412;SDS011;68863;49.528;11.010;2024-03-23T18:03:22;1.50;;;0.30;;
79412;SDS011;68863;49.528;11.010;2024-03-23T18:04:23;2.35;;;0.40;;
79412;SDS011;68863;49.528;11.010;2024-03-23T18:05:23;2.65;;;0.20;;
79412;SDS011;68863;49.528;11.010;2024-03-23T18:06:23;2.30;;;0.38;;
79412;SDS011;68863;49.528;11.010;2024-03-23T18:07:24;3.70;;;0.40;;
79412;SDS011;68863;49.528;11.010;2024-03-23T18:08:24;2.13;;;0.40;;
79412;SDS011;68863;49.528;11.010;2024-03-23T18:09:25;3.15;;;0.43;;
79412;SDS011;68863;49.528;11.010;2024-03-23T18:10:25;2.97;;;0.50;;
79412;SDS011;68863;49.528;11.010;2024-03-23T18:11:31;2.63;;;0.40;;
79412;SDS011;68863;49.528;11.010;2024-03-23T18:13:06;1.13;;;0.45;;
79412;SDS011;68863;49.528;11.010;2024-03-23T18:14:09;3.95;;;0.40;;
79412;SDS011;68863;49.528;11.010;2024-03-23T18:15:09;0.93;;;0.25;;
79412;SDS011;68863;49.528;11.010;2024-03-23T18:16:10;2.00;;;0.30;;
79412;SDS011;68863;49.528;11.010;2024-03-23T18:17:10;2.03;;;0.22;;
79412;SDS011;68863;49.528;11.010;2024-03-23T18:18:11;2.25;;;0.20;;
79412;SDS011;68863;49.528;11.010;2024-03-23T18:19:11;1.48;;;0.20;;
79412;SDS011;68863;49.528;11.010;2024-03-23T18:20:14;1.83;;;0.22;;
79412;SDS011;68863;49.528;11.010;2024-03-23T18:21:15;3.08;;;0.30;;
79412;SDS011;68863;49.528;11.010;2024-03-23T18:22:15;2.83;;;0.32;;
79412;SDS011;68863;49.528;11.010;2024-03-23T18:23:15;1.75;;;0.32;;
79412;SDS011;68863;49.528;11.010;2024-03-23T18:24:17;1.40;;;0.13;;
79412;SDS011;68863;49.528;11.010;2024-03-23T18:25:18;0.93;;;0.25;;
79412;SDS011;68863;49.528;11.010;2024-03-23T18:26:18;1.27;;;0.20;;
79412;SDS011;68863;49.528;11.010;2024-03-23T18:27:18;2.05;;;0.32;;
79412;SDS011;68863;49.528;11.010;2024-03-23T18:28:18;1.92;;;0.35;;
79412;SDS011;68863;49.528;11.010;2024-03-23T18:29:21;3.70;;;0.30;;
79412;SDS011;68863;49.528;11.010;2024-03-23T18:30:22;1.92;;;0.35;;
79412;SDS011;68863;49.528;11.010;2024-03-23T18:31:22;2.47;;;0.20;;
79412;SDS011;68863;49.528;11.010;2024-03-23T18:32:23;1.33;;;0.20;;
79412;SDS011;68863;49.528;11.010;2024-03-23T18:33:24;1.88;;;0.25;;
79412;SDS011;68863;49.528;11.010;2024-03-23T18:34:25;3.83;;;0.40;;
79412;SDS011;68863;49.528;11.010;2024-03-23T18:35:25;2.72;;;0.30;;
79412;SDS011;68863;49.528;11.010;2024-03-23T18:36:26;0.85;;;0.20;;
79412;SDS011;68863;49.528;11.010;2024-03-23T18:37:27;1.33;;;0.30;;
79412;SDS011;68863;49.528;11.010;2024-03-23T18:38:27;1.70;;;0.22;;
79412;SDS011;68863;49.528;11.010;2024-03-23T18:39:28;1.48;;;0.20;;
79412;SDS011;68863;49.528;11.010;2024-03-23T18:40:29;2.47;;;0.45;;
79412;SDS011;68863;49.528;11.010;2024-03-23T18:41:29;1.75;;;0.28;;
79412;SDS011;68863;49.528;11.010;2024-03-23T18:42:32;1.50;;;0.28;;
79412;SDS011;68863;49.528;11.010;2024-03-23T18:43:32;2.88;;;0.30;;
79412;SDS011;68863;49.528;11.010;2024-03-23T18:44:33;3.10;;;0.30;;
79412;SDS011;68863;49.528;11.010;2024-03-23T18:45:33;1.88;;;0.35;;
79412;SDS011;68863;49.528;11.010;2024-03-23T18:46:34;2.15;;;0.32;;
79412;SDS011;68863;49.528;11.010;2024-03-23T18:47:34;2.22;;;0.32;;
79412;SDS011;68863;49.528;11.010;2024-03-23T18:48:38;1.50;;;0.20;;
79412;SDS011;68863;49.528;11.010;2024-03-23T18:49:38;2.50;;;0.32;;
79412;SDS011;68863;49.528;11.010;2024-03-23T18:50:39;1.92;;;0.50;;
79412;SDS011;68863;49.528;11.010;2024-03-23T18:51:40;2.30;;;0.35;;
79412;SDS011;68863;49.528;11.010;2024-03-23T18:52:41;2.38;;;0.28;;
79412;SDS011;68863;49.528;11.010;2024-03-23T18:53:41;1.75;;;0.40;;
79412;SDS011;68863;49.528;11.010;2024-03-23T18:54:42;2.25;;;0.20;;
79412;SDS011;68863;49.528;11.010;2024-03-23T18:55:51;2.38;;;0.30;;
79412;SDS011;68863;49.528;11.010;2024-03-23T18:56:52;2.10;;;0.30;;
79412;SDS011;68863;49.528;11.010;2024-03-23T18:57:52;1.98;;;0.30;;
79412;SDS011;68863;49.528;11.010;2024-03-23T18:58:54;2.60;;;0.32;;
79412;SDS011;68863;49.528;11.010;2024-03-23T18:59:55;2.85;;;0.60;;
79412;SDS011;68863;49.528;11.010;2024-03-23T19:01:02;2.08;;;0.40;;
79412;SDS011;68863;49.528;11.010;2024-03-23T19:02:03;3.65;;;0.70;;
79412;SDS011;68863;49.528;11.010;2024-03-23T19:03:04;2.78;;;0.38;;
79412;SDS011;68863;49.528;11.010;2024-03-23T19:04:07;1.40;;;0.30;;
79412;SDS011;68863;49.528;11.010;2024-03-23T19:05:13;2.90;;;0.43;;
79412;SDS011;68863;49.528;11.010;2024-03-23T19:09:21;2.03;;;0.30;;
79412;SDS011;68863;49.528;11.010;2024-03-23T19:10:31;2.35;;;0.25;;
79412;SDS011;68863;49.528;11.010;2024-03-23T19:18:11;1.27;;;0.30;;
79412;SDS011;68863;49.528;11.010;2024-03-23T19:19:11;1.73;;;0.30;;
79412;SDS011;68863;49.528;11.010;2024-03-23T19:20:12;1.95;;;0.40;;
79412;SDS011;68863;49.528;11.010;2024-03-23T19:21:14;4.20;;;0.30;;
79412;SDS011;68863;49.528;11.010;2024-03-23T19:22:14;3.83;;;0.52;;
79412;SDS011;68863;49.528;11.010;2024-03-23T19:23:14;2.05;;;0.40;;
79412;SDS011;68863;49.528;11.010;2024-03-23T19:24:15;1.73;;;0.30;;
79412;SDS011;68863;49.528;11.010;2024-03-23T19:25:15;1.80;;;0.30;;
79412;SDS011;68863;49.528;11.010;2024-03-23T19:26:16;2.00;;;0.32;;
79412;SDS011;68863;49.528;11.010;2024-03-23T19:27:16;1.48;;;0.22;;
79412;SDS011;68863;49.528;11.010;2024-03-23T19:28:16;1.83;;;0.32;;
79412;SDS011;68863;49.528;11.010;2024-03-23T19:29:17;3.08;;;0.40;;
79412;SDS011;68863;49.528;11.010;2024-03-23T19:30:17;1.20;;;0.20;;
79412;SDS011;68863;49.528;11.010;2024-03-23T19:31:17;1.13;;;0.35;;
79412;SDS011;68863;49.528;11.010;2024-03-23T19:32:18;2.75;;;0.40;;
79412;SDS011;68863;49.528;11.010;2024-03-23T19:33:19;1.48;;;0.30;;
79412;SDS011;68863;49.528;11.010;2024-03-23T19:34:20;1.38;;;0.40;;
79412;SDS011;68863;49.528;11.010;2024-03-23T19:35:20;2.00;;;0.30;;
79412;SDS011;68863;49.528;11.010;2024-03-23T19:36:21;1.88;;;0.30;;
79412;SDS011;68863;49.528;11.010;2024-03-23T19:37:21;3.53;;;0.70;;
79412;SDS011;68863;49.528;11.010;2024-03-23T19:38:22;1.50;;;0.63;;
79412;SDS011;68863;49.528;11.010;2024-03-23T19:39:22;1.58;;;0.25;;
79412;SDS011;68863;49.528;11.010;2024-03-23T19:40:23;2.35;;;0.40;;
79412;SDS011;68863;49.528;11.010;2024-03-23T19:41:23;1.48;;;0.30;;
79412;SDS011;68863;49.528;11.010;2024-03-23T19:42:24;2.42;;;0.28;;
79412;SDS011;68863;49.528;11.010;2024-03-23T19:43:24;2.28;;;0.50;;
79412;SDS011;68863;49.528;11.010;2024-03-23T19:44:26;1.65;;;0.40;;
79412;SDS011;68863;49.528;11.010;2024-03-23T19:45:26;2.53;;;0.50;;
79412;SDS011;68863;49.528;11.010;2024-03-23T19:46:29;2.92;;;0.80;;
79412;SDS011;68863;49.528;11.010;2024-03-23T19:47:29;2.30;;;0.60;;
79412;SDS011;68863;49.528;11.010;2024-03-23T19:48:30;2.10;;;0.47;;
79412;SDS011;68863;49.528;11.010;2024-03-23T19:49:30;2.80;;;0.30;;
79412;SDS011;68863;49.528;11.010;2024-03-23T19:50:31;4.90;;;0.70;;
79412;SDS011;68863;49.528;11.010;2024-03-23T19:51:33;4.97;;;1.33;;
79412;SDS011;68863;49.528;11.010;2024-03-23T19:52:34;3.90;;;0.90;;
79412;SDS011;68863;49.528;11.010;2024-03-23T19:53:35;3.45;;;0.90;;
79412;SDS011;68863;49.528;11.010;2024-03-23T19:54:36;6.05;;;0.88;;
79412;SDS011;68863;49.528;11.010;2024-03-23T19:55:36;4.70;;;0.90;;
79412;SDS011;68863;49.528;11.010;2024-03-23T19:56:40;3.60;;;0.70;;
79412;SDS011;68863;49.528;11.010;2024-03-23T19:57:40;4.05;;;0.63;;
79412;SDS011;68863;49.528;11.010;2024-03-23T19:58:41;2.70;;;0.75;;
79412;SDS011;68863;49.528;11.010;2024-03-23T19:59:42;2.63;;;0.63;;
79412;SDS011;68863;49.528;11.010;2024-03-23T20:00:42;2.42;;;0.50;;
79412;SDS011;68863;49.528;11.010;2024-03-23T20:01:43;3.40;;;0.40;;
79412;SDS011;68863;49.528;11.010;2024-03-23T20:02:46;4.22;;;0.80;;
79412;SDS011;68863;49.528;11.010;2024-03-23T20:03:47;4.30;;;1.10;;
79412;SDS011;68863;49.528;11.010;2024-03-23T20:04:51;6.05;;;0.85;;
79412;SDS011;68863;49.528;11.010;2024-03-23T20:05:58;4.78;;;0.80;;
79412;SDS011;68863;49.528;11.010;2024-03-23T20:06:58;4.65;;;0.75;;
79412;SDS011;68863;49.528;11.010;2024-03-23T20:07:59;3.33;;;0.85;;
79412;SDS011;68863;49.528;11.010;2024-03-23T20:08:59;3.42;;;1.10;;
79412;SDS011;68863;49.528;11.010;2024-03-23T20:10:00;3.53;;;0.73;;
79412;SDS011;68863;49.528;11.010;2024-03-23T20:11:00;2.70;;;0.70;;
79412;SDS011;68863;49.528;11.010;2024-03-23T20:12:00;3.00;;;0.80;;
79412;SDS011;68863;49.528;11.010;2024-03-23T20:13:01;3.97;;;0.82;;
79412;SDS011;68863;49.528;11.010;2024-03-23T20:14:01;3.65;;;0.82;;
79412;SDS011;68863;49.528;11.010;2024-03-23T20:15:02;3.67;;;0.90;;
79412;SDS011;68863;49.528;11.010;2024-03-23T20:16:03;2.70;;;0.70;;
79412;SDS011;68863;49.528;11.010;2024-03-23T20:17:03;3.47;;;0.80;;
79412;SDS011;68863;49.528;11.010;2024-03-23T20:18:04;3.65;;;0.73;;
79412;SDS011;68863;49.528;11.010;2024-03-23T20:19:04;3.20;;;0.80;;
79412;SDS011;68863;49.528;11.010;2024-03-23T20:20:08;2.28;;;0.52;;
79412;SDS011;68863;49.528;11.010;2024-03-23T20:21:08;3.15;;;0.60;;
79412;SDS011;68863;49.528;11.010;2024-03-23T20:22:09;3.30;;;0.55;;
79412;SDS011;68863;49.528;11.010;2024-03-23T20:23:09;3.22;;;0.77;;
79412;SDS011;68863;49.528;11.010;2024-03-23T20:24:10;2.35;;;0.65;;
79412;SDS011;68863;49.528;11.010;2024-03-23T20:25:10;3.00;;;0.70;;
79412;SDS011;68863;49.528;11.010;2024-03-23T20:26:11;2.55;;;0.40;;
79412;SDS011;68863;49.528;11.010;2024-03-23T20:27:11;2.35;;;0.40;;
79412;SDS011;68863;49.528;11.010;2024-03-23T20:28:11;4.95;;;0.60;;
79412;SDS011;68863;49.528;11.010;2024-03-23T20:29:12;2.53;;;0.47;;
79412;SDS011;68863;49.528;11.010;2024-03-23T20:30:12;2.55;;;0.45;;
79412;SDS011;68863;49.528;11.010;2024-03-23T20:31:13;3.47;;;0.50;;
79412;SDS011;68863;49.528;11.010;2024-03-23T20:32:13;3.83;;;0.55;;
79412;SDS011;68863;49.528;11.010;2024-03-23T20:33:14;2.83;;;0.55;;
79412;SDS011;68863;49.528;11.010;2024-03-23T20:34:14;3.90;;;0.57;;
79412;SDS011;68863;49.528;11.010;2024-03-23T20:35:15;2.88;;;0.60;;
79412;SDS011;68863;49.528;11.010;2024-03-23T20:36:15;3.35;;;0.40;;
79412;SDS011;68863;49.528;11.010;2024-03-23T20:37:16;2.55;;;0.40;;
79412;SDS011;68863;49.528;11.010;2024-03-23T20:38:16;4.28;;;0.43;;
79412;SDS011;68863;49.528;11.010;2024-03-23T20:39:17;1.95;;;0.40;;
79412;SDS011;68863;49.528;11.010;2024-03-23T20:40:17;2.80;;;0.28;;
79412;SDS011;68863;49.528;11.010;2024-03-23T20:41:18;3.15;;;0.30;;
79412;SDS011;68863;49.528;11.010;2024-03-23T20:42:20;2.17;;;0.32;;
79412;SDS011;68863;49.528;11.010;2024-03-23T20:43:20;2.20;;;0.30;;
79412;SDS011;68863;49.528;11.010;2024-03-23T20:44:22;2.50;;;0.38;;
79412;SDS011;68863;49.528;11.010;2024-03-23T20:45:22;2.00;;;0.32;;
79412;SDS011;68863;49.528;11.010;2024-03-23T20:46:22;1.55;;;0.30;;
79412;SDS011;68863;49.528;11.010;2024-03-23T20:47:23;3.78;;;0.43;;
79412;SDS011;68863;49.528;11.010;2024-03-23T20:48:24;1.65;;;0.32;;
79412;SDS011;68863;49.528;11.010;2024-03-23T20:49:25;2.88;;;0.70;;
79412;SDS011;68863;49.528;11.010;2024-03-23T20:50:26;1.70;;;0.22;;
79412;SDS011;68863;49.528;11.010;2024-03-23T20:52:25;1.95;;;0.20;;
79412;SDS011;68863;49.528;11.010;2024-03-23T20:54:24;1.25;;;0.20;;
79412;SDS011;68863;49.528;11.010;2024-03-23T20:56:23;3.20;;;0.35;;
79412;SDS011;68863;49.528;11.010;2024-03-23T20:58:22;2.33;;;0.30;;
79412;SDS011;68863;49.528;11.010;2024-03-23T20:59:23;2.92;;;0.32;;
79412;SDS011;68863;49.528;11.010;2024-03-23T21:00:24;1.55;;;0.20;;
79412;SDS011;68863;49.528;11.010;2024-03-23T21:01:24;1.38;;;0.32;;
79412;SDS011;68863;49.528;11.010;2024-03-23T21:02:24;2.00;;;0.30;;
79412;SDS011;68863;49.528;11.010;2024-03-23T21:03:25;2.55;;;0.30;;
79412;SDS011;68863;49.528;11.010;2024-03-23T21:04:26;2.50;;;0.40;;
79412;SDS011;68863;49.528;11.010;2024-03-23T21:05:26;1.60;;;0.30;;
79412;SDS011;68863;49.528;11.010;2024-03-23T21:06:26;1.65;;;0.30;;
79412;SDS011;68863;49.528;11.010;2024-03-23T21:07:27;1.80;;;0.30;;
79412;SDS011;68863;49.528;11.010;2024-03-23T21:08:27;3.13;;;0.50;;
79412;SDS011;68863;49.528;11.010;2024-03-23T21:09:28;2.17;;;0.30;;
79412;SDS011;68863;49.528;11.010;2024-03-23T21:10:28;2.67;;;0.52;;
79412;SDS011;68863;49.528;11.010;2024-03-23T21:11:28;2.50;;;0.40;;
79412;SDS011;68863;49.528;11.010;2024-03-23T21:12:29;2.83;;;0.35;;
79412;SDS011;68863;49.528;11.010;2024-03-23T21:13:30;2.10;;;0.40;;
79412;SDS011;68863;49.528;11.010;2024-03-23T21:14:33;2.05;;;0.43;;
79412;SDS011;68863;49.528;11.010;2024-03-23T21:15:34;2.25;;;0.80;;
79412;SDS011;68863;49.528;11.010;2024-03-23T21:16:34;4.15;;;0.40;;
79412;SDS011;68863;49.528;11.010;2024-03-23T21:17:35;1.73;;;0.30;;
79412;SDS011;68863;49.528;11.010;2024-03-23T21:18:35;1.73;;;0.28;;
79412;SDS011;68863;49.528;11.010;2024-03-23T21:19:36;2.25;;;0.47;;
79412;SDS011;68863;49.528;11.010;2024-03-23T21:20:37;1.98;;;0.40;;
79412;SDS011;68863;49.528;11.010;2024-03-23T21:21:37;1.90;;;0.40;;
79412;SDS011;68863;49.528;11.010;2024-03-23T21:22:37;3.15;;;0.30;;
79412;SDS011;68863;49.528;11.010;2024-03-23T21:23:38;2.90;;;0.40;;
79412;SDS011;68863;49.528;11.010;2024-03-23T21:24:38;1.98;;;0.45;;
79412;SDS011;68863;49.528;11.010;2024-03-23T21:25:39;1.77;;;0.40;;
79412;SDS011;68863;49.528;11.010;2024-03-23T21:26:40;1.73;;;0.25;;
79412;SDS011;68863;49.528;11.010;2024-03-23T21:27:40;3.45;;;0.50;;
79412;SDS011;68863;49.528;11.010;2024-03-23T21:28:41;2.13;;;0.40;;
79412;SDS011;68863;49.528;11.010;2024-03-23T21:29:41;1.70;;;0.50;;
79412;SDS011;68863;49.528;11.010;2024-03-23T21:30:42;2.72;;;0.50;;
79412;SDS011;68863;49.528;11.010;2024-03-23T21:31:42;2.65;;;0.50;;
79412;SDS011;68863;49.528;11.010;2024-03-23T21:32:43;2.75;;;0.45;;
79412;SDS011;68863;49.528;11.010;2024-03-23T21:33:43;3.67;;;0.40;;
79412;SDS011;68863;49.528;11.010;2024-03-23T21:34:43;2.80;;;0.40;;
79412;SDS011;68863;49.528;11.010;2024-03-23T21:35:44;2.63;;;0.50;;
79412;SDS011;68863;49.528;11.010;2024-03-23T21:36:45;2.20;;;0.40;;
79412;SDS011;68863;49.528;11.010;2024-03-23T21:37:45;2.08;;;0.40;;
79412;SDS011;68863;49.528;11.010;2024-03-23T21:38:46;3.00;;;0.50;;
79412;SDS011;68863;49.528;11.010;2024-03-23T21:39:48;2.45;;;0.40;;
79412;SDS011;68863;49.528;11.010;2024-03-23T21:40:54;2.42;;;0.40;;
79412;SDS011;68863;49.528;11.010;2024-03-23T21:41:55;2.83;;;0.43;;
79412;SDS011;68863;49.528;11.010;2024-03-23T21:42:56;1.92;;;0.40;;
79412;SDS011;68863;49.528;11.010;2024-03-23T21:43:56;2.17;;;0.50;;
79412;SDS011;68863;49.528;11.010;2024-03-23T21:44:57;1.77;;;0.50;;
79412;SDS011;68863;49.528;11.010;2024-03-23T21:47:01;2.97;;;0.60;;
79412;SDS011;68863;49.528;11.010;2024-03-23T21:48:02;3.58;;;0.55;;
79412;SDS011;68863;49.528;11.010;2024-03-23T21:49:02;1.35;;;0.32;;
79412;SDS011;68863;49.528;11.010;2024-03-23T21:50:03;2.28;;;0.40;;
79412;SDS011;68863;49.528;11.010;2024-03-23T21:51:06;4.78;;;0.75;;
79412;SDS011;68863;49.528;11.010;2024-03-23T21:52:07;2.63;;;0.50;;
79412;SDS011;68863;49.528;11.010;2024-03-23T21:53:07;3.08;;;0.50;;
79412;SDS011;68863;49.528;11.010;2024-03-23T21:54:08;3.33;;;0.45;;
79412;SDS011;68863;49.528;11.010;2024-03-23T21:55:08;2.55;;;0.35;;